• Join FlightAware (Why Join?)
  • Login
  • US Flag 
06:14PM EST


 

Airport Tracker/Info


-or-


 

Live Flight TrackerFlight Track Log ✈ N5217C ✈ 14-Jun-2013 ✈ KSPA - KMWO

Flight Track Log - Related Links

Times and Time Zones

All times are in EDT time to prevent confusion due to time zone crossing. See the N5217C flight status page for this flight to view local times or setup timezone preferences in your user account.

Time Position Orientation Groundspeed Altitude Reporting Facility
EDT Latitude Longitude Course Direction KTS MPH feet Rate Location/Type
05:41PM 35.0061 -81.9772 342° North 92 106 4,100  Level Atlanta Center
05:42PM 35.0253 -81.9894 332° Northwest 97 112 4,500 420 Climbing Atlanta Center
05:43PM 35.0483 -81.9989 341° North 87 100 5,000 360 Climbing Atlanta Center
05:44PM 35.0556 -82.0241 345° North  Level FlightAware Approximate
05:44PM 35.0733 -82.0058 347° North 98 113 5,300  Level Atlanta Center
05:45PM 35.0878 -82.0351 342° North  Level FlightAware Approximate
05:45PM 35.0922 -82.0131 343° North 90 104 5,800  Level Atlanta Center
05:46PM 35.1196 -82.0479 342° North  Level FlightAware Approximate
05:46PM 35.1175 -82.0278 335° Northwest 99 114 6,300  Level Atlanta Center
05:48PM 35.1643 -82.0648 327° Northwest  Level FlightAware Approximate
05:55PM 35.3700 -82.1847 338° Northwest  Level FlightAware Approximate
05:56PM 35.4010 -82.2002 338° Northwest  Level FlightAware Approximate
05:57PM 35.4320 -82.2156 338° Northwest  Level FlightAware Approximate
05:58PM 35.4629 -82.2311 338° Northwest  Level FlightAware Approximate
05:59PM 35.4939 -82.2466 338° Northwest  Level FlightAware Approximate
06:00PM 35.5249 -82.2621 338° Northwest  Level FlightAware Approximate
06:01PM 35.5559 -82.2776 338° Northwest  Level FlightAware Approximate
06:02PM 35.5868 -82.2932 338° Northwest  Level FlightAware Approximate
06:03PM 35.6178 -82.3087 338° Northwest  Level FlightAware Approximate
06:05PM 35.6797 -82.3398 338° Northwest  Level FlightAware Approximate
06:06PM 35.7111 -82.3537 345° North  Level FlightAware Approximate
06:06PM 35.7578 -82.3547 338° Northwest 152 175 10,100  Level Indianapolis Center
06:07PM 35.7434 -82.3645 345° North  Level FlightAware Approximate
06:07PM 35.7953 -82.3736 338° Northwest 148 170 10,000  Level Indianapolis Center
06:08PM 35.7747 -82.3790 338° Northwest  Level FlightAware Approximate
06:08PM 35.8311 -82.3925 337° Northwest 142 163 10,000  Level Indianapolis Center
06:09PM 35.8057 -82.3944 338° Northwest  Level FlightAware Approximate
06:09PM 35.8667 -82.4094 339° North 138 159 10,100  Level Indianapolis Center
06:10PM 35.8367 -82.4099 338° Northwest  Level FlightAware Approximate
06:10PM 35.9028 -82.4281 337° Northwest 140 161 10,100  Level Indianapolis Center
06:11PM 35.8677 -82.4254 338° Northwest  Level FlightAware Approximate
06:11PM 35.9436 -82.4486 338° Northwest 137 158 10,000  Level Indianapolis Center
06:12PM 35.9803 -82.4678 337° Northwest 141 162 10,000  Level Indianapolis Center
06:13PM 36.0147 -82.4858 337° Northwest 136 157 10,000  Level Indianapolis Center
06:14PM 36.0467 -82.5039 335° Northwest 129 148 10,000  Level Indianapolis Center
06:15PM 36.0836 -82.5206 340° North 137 158 10,000  Level Indianapolis Center
06:16PM 36.1222 -82.5425 335° Northwest 131 151 10,000  Level Indianapolis Center
06:17PM 36.1572 -82.5594 339° North 133 153 10,000  Level Indianapolis Center
06:18PM 36.1917 -82.5786 336° Northwest 135 155 10,000 -60 Level Indianapolis Center
06:19PM 36.2264 -82.5964 338° Northwest 135 155 9,900  Descending Indianapolis Center
06:20PM 36.2589 -82.6142 336° Northwest 129 148 10,000  Climbing Indianapolis Center
06:21PM 36.2936 -82.6311 339° North 132 152 10,000  Level Indianapolis Center
06:22PM 36.3342 -82.6528 337° Northwest 135 155 10,000  Level Indianapolis Center
06:24PM 36.3692 -82.6706 338° Northwest 135 155 10,000  Level Indianapolis Center
06:25PM 36.4039 -82.6889 337° Northwest 135 155 10,000  Level Indianapolis Center
06:26PM 36.4389 -82.7061 338° Northwest 135 155 10,000  Level Indianapolis Center
06:27PM 36.4733 -82.7242 337° Northwest 135 155 10,000  Level Indianapolis Center
06:28PM 36.5139 -82.7461 336° Northwest 136 157 10,000  Level Indianapolis Center
06:29PM 36.5489 -82.7639 338° Northwest 135 155 10,000  Level Indianapolis Center
06:30PM 36.5817 -82.7811 337° Northwest 129 148 10,000  Level Indianapolis Center
06:31PM 36.6158 -82.7989 337° Northwest 132 152 10,000  Level Indianapolis Center
06:32PM 36.6494 -82.8172 336° Northwest 131 151 10,000  Level Indianapolis Center
06:33PM 36.6836 -82.8350 337° Northwest 132 152 10,000  Level Indianapolis Center
06:34PM 36.7250 -82.8553 339° North 135 155 10,000  Level Indianapolis Center
06:35PM 36.7597 -82.8744 336° Northwest 137 158 10,000  Level Indianapolis Center
06:36PM 36.7939 -82.8931 336° Northwest 133 153 10,000  Level Indianapolis Center
06:37PM 36.8281 -82.9111 337° Northwest 133 153 10,100 240 Climbing Indianapolis Center
06:38PM 36.8592 -82.9281 336° Northwest 122 140 10,500 300 Climbing Indianapolis Center
06:39PM 36.8892 -82.9436 337° Northwest 116 133 10,800 240 Climbing Indianapolis Center
06:40PM 36.9192 -82.9592 337° Northwest 115 132 11,100 360 Climbing Indianapolis Center
06:41PM 36.9503 -82.9764 336° Northwest 106 122 11,600 360 Climbing Indianapolis Center
06:42PM 36.9758 -82.9906 336° Northwest 101 116 11,900 180 Climbing Indianapolis Center
06:43PM 37.0042 -83.0044 339° North 105 121 12,000  Climbing Indianapolis Center
06:44PM 37.0356 -83.0217 336° Northwest 118 136 12,000  Level Indianapolis Center
06:45PM 37.0697 -83.0386 338° Northwest 127 146 12,000  Level Indianapolis Center
06:46PM 37.1017 -83.0564 336° Northwest 128 147 12,000  Level Indianapolis Center
06:47PM 37.1408 -83.0769 337° Northwest 128 147 12,000  Level Indianapolis Center
06:48PM 37.1747 -83.0950 337° Northwest 132 152 12,000  Level Indianapolis Center
06:49PM 37.2092 -83.1133 337° Northwest 133 153 12,000  Level Indianapolis Center
06:50PM 37.2425 -83.1306 338° Northwest 129 148 12,000  Level Indianapolis Center
06:51PM 37.2775 -83.1486 338° Northwest 134 154 12,000  Level Indianapolis Center
06:52PM 37.3119 -83.1683 336° Northwest 136 157 12,000  Level Indianapolis Center
06:53PM 37.3528 -83.1894 338° Northwest 135 155 12,000  Level Indianapolis Center
06:55PM 37.3872 -83.2081 337° Northwest 135 155 12,000  Level Indianapolis Center
06:56PM 37.4217 -83.2272 336° Northwest 135 155 12,000  Level Indianapolis Center
06:57PM 37.4542 -83.2442 338° Northwest 128 147 12,000  Level Indianapolis Center
06:58PM 37.4889 -83.2636 336° Northwest 134 154 12,000  Level Indianapolis Center
06:59PM 37.5289 -83.2858 336° Northwest 134 154 12,000  Level Indianapolis Center
07:00PM 37.5642 -83.3033 339° North 135 155 12,000  Level Indianapolis Center
07:01PM 37.5981 -83.3236 335° Northwest 135 155 12,000  Level Indianapolis Center
07:02PM 37.6328 -83.3414 338° Northwest 134 154 12,000  Level Indianapolis Center
07:03PM 37.6656 -83.3589 337° Northwest 128 147 12,000  Level Indianapolis Center
07:04PM 37.7000 -83.3778 337° Northwest 134 154 12,000  Level Indianapolis Center
07:05PM 37.7406 -83.3992 337° Northwest 135 155 12,000  Level Indianapolis Center
07:06PM 37.7747 -83.4186 336° Northwest 135 155 12,000  Level Indianapolis Center
07:07PM 37.8100 -83.4361 339° North 135 155 12,000  Level Indianapolis Center
07:08PM 37.8458 -83.4575 335° Northwest 141 162 12,000  Level Indianapolis Center
07:09PM 37.8806 -83.4758 337° Northwest 136 157 12,000  Level Indianapolis Center
07:10PM 37.9169 -83.4958 337° Northwest 141 162 12,000 -60 Level Indianapolis Center
07:11PM 37.9583 -83.5178 337° Northwest 138 159 11,900  Descending Indianapolis Center
07:12PM 37.9939 -83.5364 338° Northwest 138 159 12,000  Climbing Indianapolis Center
07:13PM 38.0292 -83.5564 336° Northwest 137 158 12,000  Level Indianapolis Center
07:14PM 38.0656 -83.5758 337° Northwest 141 162 12,000  Level Indianapolis Center
07:15PM 38.1017 -83.5942 338° Northwest 140 161 12,000  Level Indianapolis Center
07:16PM 38.1375 -83.6142 336° Northwest 141 162 12,000  Level Indianapolis Center
07:17PM 38.1797 -83.6378 336° Northwest 143 165 12,000  Level Indianapolis Center
07:18PM 38.2161 -83.6578 337° Northwest 143 165 12,000  Level Indianapolis Center
07:19PM 38.2519 -83.6789 335° Northwest 143 165 12,000  Level Indianapolis Center
07:20PM 38.2883 -83.6978 338° Northwest 142 163 12,000  Level Indianapolis Center
07:21PM 38.3228 -83.7183 335° Northwest 138 159 12,000  Level Indianapolis Center
07:22PM 38.3606 -83.7381 338° Northwest 142 163 12,000  Level Indianapolis Center
07:23PM 38.4031 -83.7611 337° Northwest 141 162 12,000  Level Indianapolis Center
07:24PM 38.4403 -83.7825 336° Northwest 146 168 12,000  Level Indianapolis Center
07:25PM 38.4756 -83.8031 335° Northwest 141 162 12,000  Level Indianapolis Center
07:27PM 38.5119 -83.8225 337° Northwest 141 162 12,000  Level Indianapolis Center
07:28PM 38.5483 -83.8425 337° Northwest 142 163 12,000  Level Indianapolis Center
07:29PM 38.5839 -83.8625 336° Northwest 140 161 12,000  Level Indianapolis Center
07:30PM 38.6292 -83.8736 349° North 141 162 12,000 -120 Level Indianapolis Center
07:31PM 38.6653 -83.8758 357° North 139 160 11,800 -480 Descending Indianapolis Center
07:32PM 38.7106 -83.8825 353° North 159 183 11,100 -600 Descending Indianapolis Center
07:33PM 38.7567 -83.8883 354° North 165 190 10,600 -660 Descending Indianapolis Center
07:34PM 38.8039 -83.8961 353° North 169 194 9,800 -780 Descending Indianapolis Center
07:35PM 38.8525 -83.8872 North 173 199 9,000 -960 Descending Indianapolis Center
07:36PM 38.9097 -83.8878 360° North 174 200 7,900 -960 Descending Indianapolis Center
07:37PM 38.9586 -83.9050 345° North 176 203 7,100 -660 Descending Indianapolis Center
07:38PM 39.0003 -83.9303 335° Northwest 170 196 6,600 -600 Descending Indianapolis Center
07:39PM 39.0300 -83.9608 321° Northwest 170 196 6,100 -600 Descending Indianapolis Center
07:39PM 39.0381 -83.9642 342° North 164 189 6,000 -660 Descending Indianapolis Center
07:40PM 39.0767 -83.9992 325° Northwest 168 193 5,300 -540 Descending Indianapolis Center
07:41PM 39.1144 -84.0333 325° Northwest 164 189 5,000 -180 Descending Indianapolis Center
07:42PM 39.1439 -84.0614 324° Northwest 146 168 5,000  Level Indianapolis Center
07:43PM 39.1753 -84.0869 328° Northwest 135 155 5,000  Level Indianapolis Center
07:44PM 39.2106 -84.1186 325° Northwest 138 159 5,000  Level Indianapolis Center
07:45PM 39.2419 -84.1442 328° Northwest 138 159 5,000  Level Indianapolis Center
07:46PM 39.2733 -84.1725 325° Northwest 139 160 5,000  Level Indianapolis Center
07:46PM 39.2817 -84.1794 327° Northwest 138 159 5,000  Level Indianapolis Center
07:47PM 39.3047 -84.1983 328° Northwest 140 161 5,000  Level Indianapolis Center
07:47PM 39.3150 -84.2072 326° Northwest 139 160 5,000  Level Indianapolis Center
07:48PM 39.3361 -84.2267 325° Northwest 143 165 5,000  Level Indianapolis Center
07:48PM 39.3489 -84.2364 330° Northwest 141 162 5,000  Level Indianapolis Center
07:49PM 39.3694 -84.2553 325° Northwest 144 166 5,000  Level Indianapolis Center
07:49PM 39.3819 -84.2656 328° Northwest 142 163 5,000 -420 Level Indianapolis Center
07:50PM 39.4025 -84.2867 322° Northwest 145 167 4,600 -600 Descending Indianapolis Center
07:50PM 39.4164 -84.2953 334° Northwest 144 166 4,400 -600 Descending Indianapolis Center
07:51PM 39.4439 -84.3192 326° Northwest 163 188 4,000 -600 Descending Indianapolis Center
07:51PM 39.4533 -84.3300 318° Northwest 152 175 3,800 -240 Descending Indianapolis Center
07:52PM 39.4900 -84.3744 317° Northwest 155 178 3,700 -120 Descending Indianapolis Center
07:54PM 39.5167 -84.3833 327° Northwest  Level FlightAware Approximate
08:01PM 39.5318 -84.3964 327° Northwest  Level Estimated
08:02PM 39.5318 -84.3964 327° Northwest  Level Estimated